Aiken, Texas
Current Conditions -  °F | °C
As of 8:55 PM on Friday 21 Nov 2014 (Local Time) from KPVW Reporting Station
Clear Clear  
Wind Chill: 47°   Ceiling: Unl
Heat Index: 47°   Visibility: 10mi
Dew Point: 40°   Wind: 3mph
Humidity: 76%   Direction: 160°SSE
Pressure: 29.99"   Gusts: NA
Location:  34.14°N, 101.53°W
Report Text: KPVW 220255Z AUTO 16003KT 10SM CLR 09/05 A2999 RMK AO2 T00850045
Loading
Personal Weather Stations






























Interactive Weather Map New forecast layout! Learn more

10-Day Weather Forecast

Advertisements
Track Severe Weather on mobile